sensor_id;sensor_type;location;lat;lon;timestamp;P1;durP1;ratioP1;P2;durP2;ratioP2
36653;SDS011;22650;49.350;20.898;2022-11-25T00:01:42;8.43;;;4.47;;
36653;SDS011;22650;49.350;20.898;2022-11-25T00:04:15;8.77;;;4.30;;
36653;SDS011;22650;49.350;20.898;2022-11-25T00:06:48;8.30;;;4.03;;
36653;SDS011;22650;49.350;20.898;2022-11-25T00:09:22;6.28;;;2.95;;
36653;SDS011;22650;49.350;20.898;2022-11-25T00:11:55;8.55;;;4.40;;
36653;SDS011;22650;49.350;20.898;2022-11-25T00:14:30;9.40;;;4.63;;
36653;SDS011;22650;49.350;20.898;2022-11-25T00:17:04;9.43;;;3.67;;
36653;SDS011;22650;49.350;20.898;2022-11-25T00:19:37;5.90;;;3.72;;
36653;SDS011;22650;49.350;20.898;2022-11-25T00:22:11;6.22;;;3.47;;
36653;SDS011;22650;49.350;20.898;2022-11-25T00:24:44;6.47;;;3.88;;
36653;SDS011;22650;49.350;20.898;2022-11-25T00:27:17;6.75;;;3.40;;
36653;SDS011;22650;49.350;20.898;2022-11-25T00:29:52;6.38;;;3.22;;
36653;SDS011;22650;49.350;20.898;2022-11-25T00:32:26;5.00;;;3.17;;
36653;SDS011;22650;49.350;20.898;2022-11-25T00:34:59;6.68;;;3.08;;
36653;SDS011;22650;49.350;20.898;2022-11-25T00:37:33;7.35;;;2.92;;
36653;SDS011;22650;49.350;20.898;2022-11-25T00:40:08;6.32;;;2.83;;
36653;SDS011;22650;49.350;20.898;2022-11-25T00:42:43;7.10;;;3.85;;
36653;SDS011;22650;49.350;20.898;2022-11-25T00:45:35;8.27;;;3.92;;
36653;SDS011;22650;49.350;20.898;2022-11-25T00:48:09;6.80;;;3.38;;
36653;SDS011;22650;49.350;20.898;2022-11-25T00:50:43;8.23;;;3.90;;
36653;SDS011;22650;49.350;20.898;2022-11-25T00:53:16;5.68;;;2.70;;
36653;SDS011;22650;49.350;20.898;2022-11-25T00:55:50;5.10;;;2.83;;
36653;SDS011;22650;49.350;20.898;2022-11-25T00:58:41;5.60;;;3.00;;
36653;SDS011;22650;49.350;20.898;2022-11-25T01:01:17;6.50;;;3.28;;
36653;SDS011;22650;49.350;20.898;2022-11-25T01:03:50;7.65;;;3.05;;
36653;SDS011;22650;49.350;20.898;2022-11-25T01:06:24;10.63;;;3.55;;
36653;SDS011;22650;49.350;20.898;2022-11-25T01:08:58;7.78;;;2.88;;
36653;SDS011;22650;49.350;20.898;2022-11-25T01:11:31;5.65;;;2.70;;
36653;SDS011;22650;49.350;20.898;2022-11-25T01:14:05;5.10;;;2.55;;
36653;SDS011;22650;49.350;20.898;2022-11-25T01:16:40;5.05;;;3.13;;
36653;SDS011;22650;49.350;20.898;2022-11-25T01:19:14;6.05;;;3.33;;
36653;SDS011;22650;49.350;20.898;2022-11-25T01:21:48;8.07;;;4.00;;
36653;SDS011;22650;49.350;20.898;2022-11-25T01:24:21;6.30;;;3.75;;
36653;SDS011;22650;49.350;20.898;2022-11-25T01:26:57;9.25;;;4.03;;
36653;SDS011;22650;49.350;20.898;2022-11-25T01:29:30;6.28;;;3.58;;
36653;SDS011;22650;49.350;20.898;2022-11-25T01:32:05;8.35;;;3.88;;
36653;SDS011;22650;49.350;20.898;2022-11-25T01:34:39;6.05;;;3.00;;
36653;SDS011;22650;49.350;20.898;2022-11-25T01:37:12;6.40;;;3.20;;
36653;SDS011;22650;49.350;20.898;2022-11-25T01:39:47;6.75;;;3.40;;
36653;SDS011;22650;49.350;20.898;2022-11-25T01:42:21;6.78;;;3.47;;
36653;SDS011;22650;49.350;20.898;2022-11-25T01:48:11;6.40;;;3.03;;
36653;SDS011;22650;49.350;20.898;2022-11-25T01:50:50;5.32;;;3.25;;
36653;SDS011;22650;49.350;20.898;2022-11-25T01:53:24;5.72;;;2.88;;
36653;SDS011;22650;49.350;20.898;2022-11-25T01:56:01;7.03;;;3.47;;
36653;SDS011;22650;49.350;20.898;2022-11-25T01:58:37;5.68;;;2.65;;
36653;SDS011;22650;49.350;20.898;2022-11-25T02:01:12;5.18;;;2.95;;
36653;SDS011;22650;49.350;20.898;2022-11-25T02:03:49;8.27;;;3.53;;
36653;SDS011;22650;49.350;20.898;2022-11-25T02:06:26;9.82;;;4.47;;
36653;SDS011;22650;49.350;20.898;2022-11-25T02:09:02;8.18;;;4.40;;
36653;SDS011;22650;49.350;20.898;2022-11-25T02:11:37;8.50;;;6.15;;
36653;SDS011;22650;49.350;20.898;2022-11-25T02:14:13;13.10;;;4.70;;
36653;SDS011;22650;49.350;20.898;2022-11-25T02:16:49;11.52;;;5.03;;
36653;SDS011;22650;49.350;20.898;2022-11-25T02:19:38;10.93;;;4.68;;
36653;SDS011;22650;49.350;20.898;2022-11-25T02:22:24;7.50;;;4.05;;
36653;SDS011;22650;49.350;20.898;2022-11-25T02:25:10;10.10;;;4.10;;
36653;SDS011;22650;49.350;20.898;2022-11-25T02:27:46;9.15;;;4.68;;
36653;SDS011;22650;49.350;20.898;2022-11-25T02:30:23;10.73;;;4.40;;
36653;SDS011;22650;49.350;20.898;2022-11-25T02:32:58;9.00;;;4.53;;
36653;SDS011;22650;49.350;20.898;2022-11-25T02:35:33;13.45;;;5.32;;
36653;SDS011;22650;49.350;20.898;2022-11-25T02:38:08;8.98;;;4.90;;
36653;SDS011;22650;49.350;20.898;2022-11-25T02:40:48;9.77;;;3.75;;
36653;SDS011;22650;49.350;20.898;2022-11-25T02:43:25;10.18;;;4.28;;
36653;SDS011;22650;49.350;20.898;2022-11-25T02:45:59;10.40;;;3.92;;
36653;SDS011;22650;49.350;20.898;2022-11-25T02:48:35;6.65;;;3.92;;
36653;SDS011;22650;49.350;20.898;2022-11-25T02:51:31;9.50;;;3.75;;
36653;SDS011;22650;49.350;20.898;2022-11-25T02:54:05;9.82;;;4.85;;
36653;SDS011;22650;49.350;20.898;2022-11-25T02:56:40;9.73;;;3.90;;
36653;SDS011;22650;49.350;20.898;2022-11-25T02:59:14;6.95;;;3.92;;
36653;SDS011;22650;49.350;20.898;2022-11-25T03:01:47;7.70;;;3.75;;
36653;SDS011;22650;49.350;20.898;2022-11-25T03:04:21;7.18;;;3.72;;
36653;SDS011;22650;49.350;20.898;2022-11-25T03:06:54;8.48;;;3.85;;
36653;SDS011;22650;49.350;20.898;2022-11-25T03:09:28;8.93;;;3.83;;
36653;SDS011;22650;49.350;20.898;2022-11-25T03:12:03;7.82;;;3.65;;
36653;SDS011;22650;49.350;20.898;2022-11-25T03:14:56;6.10;;;3.47;;
36653;SDS011;22650;49.350;20.898;2022-11-25T03:17:29;7.60;;;3.03;;
36653;SDS011;22650;49.350;20.898;2022-11-25T03:20:04;6.05;;;3.75;;
36653;SDS011;22650;49.350;20.898;2022-11-25T03:22:38;5.60;;;3.05;;
36653;SDS011;22650;49.350;20.898;2022-11-25T03:25:12;6.70;;;3.60;;
36653;SDS011;22650;49.350;20.898;2022-11-25T03:27:48;5.78;;;3.33;;
36653;SDS011;22650;49.350;20.898;2022-11-25T03:30:24;5.75;;;3.40;;
36653;SDS011;22650;49.350;20.898;2022-11-25T03:33:02;8.77;;;4.13;;
36653;SDS011;22650;49.350;20.898;2022-11-25T03:35:36;7.68;;;3.97;;
36653;SDS011;22650;49.350;20.898;2022-11-25T03:38:09;9.57;;;4.32;;
36653;SDS011;22650;49.350;20.898;2022-11-25T03:40:44;8.75;;;3.95;;
36653;SDS011;22650;49.350;20.898;2022-11-25T03:43:19;7.55;;;3.67;;
36653;SDS011;22650;49.350;20.898;2022-11-25T03:45:53;6.43;;;3.45;;
36653;SDS011;22650;49.350;20.898;2022-11-25T03:48:26;6.63;;;3.20;;
36653;SDS011;22650;49.350;20.898;2022-11-25T03:51:00;6.35;;;3.67;;
36653;SDS011;22650;49.350;20.898;2022-11-25T03:53:33;7.43;;;3.53;;
36653;SDS011;22650;49.350;20.898;2022-11-25T03:56:09;9.23;;;3.80;;
36653;SDS011;22650;49.350;20.898;2022-11-25T03:58:44;6.28;;;3.45;;
36653;SDS011;22650;49.350;20.898;2022-11-25T04:01:19;9.27;;;4.25;;
36653;SDS011;22650;49.350;20.898;2022-11-25T04:03:53;8.65;;;3.88;;
36653;SDS011;22650;49.350;20.898;2022-11-25T04:06:27;6.32;;;3.42;;
36653;SDS011;22650;49.350;20.898;2022-11-25T04:09:00;7.03;;;3.75;;
36653;SDS011;22650;49.350;20.898;2022-11-25T04:11:34;5.47;;;3.17;;
36653;SDS011;22650;49.350;20.898;2022-11-25T04:14:29;6.60;;;3.70;;
36653;SDS011;22650;49.350;20.898;2022-11-25T04:17:03;7.28;;;3.58;;
36653;SDS011;22650;49.350;20.898;2022-11-25T04:19:39;8.10;;;4.35;;
36653;SDS011;22650;49.350;20.898;2022-11-25T04:22:13;6.38;;;3.75;;
36653;SDS011;22650;49.350;20.898;2022-11-25T04:24:48;8.73;;;3.83;;
36653;SDS011;22650;49.350;20.898;2022-11-25T04:27:27;6.10;;;3.22;;
36653;SDS011;22650;49.350;20.898;2022-11-25T04:30:02;8.82;;;4.07;;
36653;SDS011;22650;49.350;20.898;2022-11-25T04:32:39;7.82;;;4.45;;
36653;SDS011;22650;49.350;20.898;2022-11-25T04:35:14;9.05;;;4.15;;
36653;SDS011;22650;49.350;20.898;2022-11-25T04:37:52;7.10;;;3.88;;
36653;SDS011;22650;49.350;20.898;2022-11-25T04:40:28;9.68;;;4.20;;
36653;SDS011;22650;49.350;20.898;2022-11-25T04:43:16;11.95;;;3.70;;
36653;SDS011;22650;49.350;20.898;2022-11-25T04:45:55;10.88;;;4.47;;
36653;SDS011;22650;49.350;20.898;2022-11-25T04:48:46;6.78;;;3.55;;
36653;SDS011;22650;49.350;20.898;2022-11-25T04:51:20;9.93;;;4.30;;
36653;SDS011;22650;49.350;20.898;2022-11-25T04:53:57;8.75;;;4.32;;
36653;SDS011;22650;49.350;20.898;2022-11-25T04:56:31;8.82;;;3.67;;
36653;SDS011;22650;49.350;20.898;2022-11-25T04:59:04;10.52;;;4.30;;
36653;SDS011;22650;49.350;20.898;2022-11-25T05:01:59;10.07;;;4.22;;
36653;SDS011;22650;49.350;20.898;2022-11-25T05:04:38;16.42;;;5.85;;
36653;SDS011;22650;49.350;20.898;2022-11-25T05:07:13;8.38;;;5.05;;
36653;SDS011;22650;49.350;20.898;2022-11-25T05:09:50;8.77;;;4.63;;
36653;SDS011;22650;49.350;20.898;2022-11-25T05:12:36;17.60;;;7.30;;
36653;SDS011;22650;49.350;20.898;2022-11-25T05:15:13;11.43;;;5.72;;
36653;SDS011;22650;49.350;20.898;2022-11-25T05:17:50;16.17;;;6.25;;
36653;SDS011;22650;49.350;20.898;2022-11-25T05:20:39;11.52;;;6.28;;
36653;SDS011;22650;49.350;20.898;2022-11-25T05:23:13;19.67;;;8.73;;
36653;SDS011;22650;49.350;20.898;2022-11-25T05:25:46;18.67;;;8.68;;
36653;SDS011;22650;49.350;20.898;2022-11-25T05:28:33;18.83;;;9.70;;
36653;SDS011;22650;49.350;20.898;2022-11-25T05:31:07;19.05;;;9.43;;
36653;SDS011;22650;49.350;20.898;2022-11-25T05:33:42;20.70;;;9.32;;
36653;SDS011;22650;49.350;20.898;2022-11-25T05:36:15;18.42;;;9.38;;
36653;SDS011;22650;49.350;20.898;2022-11-25T05:38:50;15.77;;;7.57;;
36653;SDS011;22650;49.350;20.898;2022-11-25T05:41:33;19.08;;;8.90;;
36653;SDS011;22650;49.350;20.898;2022-11-25T05:44:06;18.05;;;8.25;;
36653;SDS011;22650;49.350;20.898;2022-11-25T05:46:43;17.17;;;8.73;;
36653;SDS011;22650;49.350;20.898;2022-11-25T05:49:18;17.35;;;8.82;;
36653;SDS011;22650;49.350;20.898;2022-11-25T05:51:54;16.13;;;8.43;;
36653;SDS011;22650;49.350;20.898;2022-11-25T05:54:29;13.48;;;6.55;;
36653;SDS011;22650;49.350;20.898;2022-11-25T05:57:02;18.02;;;8.40;;
36653;SDS011;22650;49.350;20.898;2022-11-25T05:59:44;14.00;;;7.32;;
36653;SDS011;22650;49.350;20.898;2022-11-25T06:02:24;15.02;;;7.55;;
36653;SDS011;22650;49.350;20.898;2022-11-25T06:05:00;16.02;;;8.38;;
36653;SDS011;22650;49.350;20.898;2022-11-25T06:07:33;19.02;;;9.05;;
36653;SDS011;22650;49.350;20.898;2022-11-25T06:10:07;17.85;;;9.75;;
36653;SDS011;22650;49.350;20.898;2022-11-25T06:12:43;17.52;;;9.45;;
36653;SDS011;22650;49.350;20.898;2022-11-25T06:15:18;19.60;;;10.00;;
36653;SDS011;22650;49.350;20.898;2022-11-25T06:17:52;19.05;;;9.90;;
36653;SDS011;22650;49.350;20.898;2022-11-25T06:20:29;19.98;;;9.55;;
36653;SDS011;22650;49.350;20.898;2022-11-25T06:23:03;19.48;;;9.77;;
36653;SDS011;22650;49.350;20.898;2022-11-25T06:25:40;20.38;;;9.88;;
36653;SDS011;22650;49.350;20.898;2022-11-25T06:28:13;19.30;;;11.00;;
36653;SDS011;22650;49.350;20.898;2022-11-25T06:30:51;17.52;;;9.52;;
36653;SDS011;22650;49.350;20.898;2022-11-25T06:33:35;18.75;;;9.15;;
36653;SDS011;22650;49.350;20.898;2022-11-25T06:36:13;22.77;;;10.77;;
36653;SDS011;22650;49.350;20.898;2022-11-25T06:38:48;29.60;;;10.90;;
36653;SDS011;22650;49.350;20.898;2022-11-25T06:41:22;20.38;;;10.13;;
36653;SDS011;22650;49.350;20.898;2022-11-25T06:43:56;32.38;;;14.80;;
36653;SDS011;22650;49.350;20.898;2022-11-25T06:46:29;21.60;;;11.38;;
36653;SDS011;22650;49.350;20.898;2022-11-25T06:49:02;22.08;;;9.93;;
36653;SDS011;22650;49.350;20.898;2022-11-25T06:51:37;24.55;;;12.63;;
36653;SDS011;22650;49.350;20.898;2022-11-25T06:54:11;19.85;;;11.23;;
36653;SDS011;22650;49.350;20.898;2022-11-25T06:56:44;29.58;;;13.15;;
36653;SDS011;22650;49.350;20.898;2022-11-25T06:59:22;35.78;;;14.32;;
36653;SDS011;22650;49.350;20.898;2022-11-25T07:01:55;25.55;;;12.70;;
36653;SDS011;22650;49.350;20.898;2022-11-25T07:04:29;32.13;;;16.00;;
36653;SDS011;22650;49.350;20.898;2022-11-25T07:07:04;55.83;;;20.67;;
36653;SDS011;22650;49.350;20.898;2022-11-25T07:09:37;35.00;;;16.92;;
36653;SDS011;22650;49.350;20.898;2022-11-25T07:12:11;32.80;;;15.45;;
36653;SDS011;22650;49.350;20.898;2022-11-25T07:14:44;30.15;;;14.30;;
36653;SDS011;22650;49.350;20.898;2022-11-25T07:17:17;29.00;;;13.07;;
36653;SDS011;22650;49.350;20.898;2022-11-25T07:19:51;32.28;;;15.60;;
36653;SDS011;22650;49.350;20.898;2022-11-25T07:22:26;48.55;;;19.23;;
36653;SDS011;22650;49.350;20.898;2022-11-25T07:24:59;61.30;;;23.50;;
36653;SDS011;22650;49.350;20.898;2022-11-25T07:27:32;51.72;;;21.77;;
36653;SDS011;22650;49.350;20.898;2022-11-25T07:30:06;44.45;;;18.15;;
36653;SDS011;22650;49.350;20.898;2022-11-25T07:33:01;35.10;;;17.88;;
36653;SDS011;22650;49.350;20.898;2022-11-25T07:35:35;46.33;;;19.77;;
36653;SDS011;22650;49.350;20.898;2022-11-25T07:38:10;68.43;;;18.88;;
36653;SDS011;22650;49.350;20.898;2022-11-25T07:40:43;44.40;;;20.73;;
36653;SDS011;22650;49.350;20.898;2022-11-25T07:43:17;47.35;;;20.30;;
36653;SDS011;22650;49.350;20.898;2022-11-25T07:45:50;45.15;;;19.55;;
36653;SDS011;22650;49.350;20.898;2022-11-25T07:48:24;41.65;;;18.60;;
36653;SDS011;22650;49.350;20.898;2022-11-25T07:50:57;36.03;;;17.15;;
36653;SDS011;22650;49.350;20.898;2022-11-25T07:53:32;36.08;;;16.13;;
36653;SDS011;22650;49.350;20.898;2022-11-25T07:56:05;30.25;;;14.60;;
36653;SDS011;22650;49.350;20.898;2022-11-25T07:58:39;33.60;;;14.98;;
36653;SDS011;22650;49.350;20.898;2022-11-25T08:01:16;61.97;;;24.27;;
36653;SDS011;22650;49.350;20.898;2022-11-25T08:03:50;156.82;;;53.40;;
36653;SDS011;22650;49.350;20.898;2022-11-25T08:06:24;65.32;;;29.05;;
36653;SDS011;22650;49.350;20.898;2022-11-25T08:09:02;63.13;;;25.63;;
36653;SDS011;22650;49.350;20.898;2022-11-25T08:11:37;50.78;;;23.67;;
36653;SDS011;22650;49.350;20.898;2022-11-25T08:14:11;58.58;;;24.90;;
36653;SDS011;22650;49.350;20.898;2022-11-25T08:16:44;38.53;;;17.17;;
36653;SDS011;22650;49.350;20.898;2022-11-25T08:19:18;38.53;;;17.30;;
36653;SDS011;22650;49.350;20.898;2022-11-25T08:21:51;31.25;;;14.52;;
36653;SDS011;22650;49.350;20.898;2022-11-25T08:24:26;33.13;;;13.82;;
36653;SDS011;22650;49.350;20.898;2022-11-25T08:27:00;26.13;;;12.43;;
36653;SDS011;22650;49.350;20.898;2022-11-25T08:29:33;21.60;;;11.23;;
36653;SDS011;22650;49.350;20.898;2022-11-25T08:32:06;24.42;;;12.13;;
36653;SDS011;22650;49.350;20.898;2022-11-25T08:34:42;28.42;;;11.60;;
36653;SDS011;22650;49.350;20.898;2022-11-25T08:37:16;27.35;;;13.63;;
36653;SDS011;22650;49.350;20.898;2022-11-25T08:39:51;28.30;;;12.73;;
36653;SDS011;22650;49.350;20.898;2022-11-25T08:42:24;26.83;;;13.02;;
36653;SDS011;22650;49.350;20.898;2022-11-25T08:44:58;14.70;;;8.45;;
36653;SDS011;22650;49.350;20.898;2022-11-25T08:47:32;17.50;;;7.90;;
36653;SDS011;22650;49.350;20.898;2022-11-25T08:50:06;18.13;;;8.77;;
36653;SDS011;22650;49.350;20.898;2022-11-25T08:52:42;16.58;;;8.82;;
36653;SDS011;22650;49.350;20.898;2022-11-25T08:55:16;18.20;;;9.35;;
36653;SDS011;22650;49.350;20.898;2022-11-25T08:57:50;18.95;;;10.18;;
36653;SDS011;22650;49.350;20.898;2022-11-25T09:00:23;19.23;;;8.68;;
36653;SDS011;22650;49.350;20.898;2022-11-25T09:02:57;17.08;;;8.57;;
36653;SDS011;22650;49.350;20.898;2022-11-25T09:05:30;21.08;;;9.85;;
36653;SDS011;22650;49.350;20.898;2022-11-25T09:08:06;26.00;;;11.57;;
36653;SDS011;22650;49.350;20.898;2022-11-25T09:10:41;25.63;;;11.25;;
36653;SDS011;22650;49.350;20.898;2022-11-25T09:13:15;20.15;;;10.10;;
36653;SDS011;22650;49.350;20.898;2022-11-25T09:15:48;24.50;;;10.60;;
36653;SDS011;22650;49.350;20.898;2022-11-25T09:18:22;18.77;;;9.02;;
36653;SDS011;22650;49.350;20.898;2022-11-25T09:20:57;17.50;;;9.73;;
36653;SDS011;22650;49.350;20.898;2022-11-25T09:23:31;24.80;;;11.60;;
36653;SDS011;22650;49.350;20.898;2022-11-25T09:26:06;27.48;;;12.52;;
36653;SDS011;22650;49.350;20.898;2022-11-25T09:28:45;21.60;;;11.27;;
36653;SDS011;22650;49.350;20.898;2022-11-25T09:31:19;27.38;;;11.93;;
36653;SDS011;22650;49.350;20.898;2022-11-25T09:33:53;28.80;;;11.38;;
36653;SDS011;22650;49.350;20.898;2022-11-25T09:36:28;25.85;;;11.77;;
36653;SDS011;22650;49.350;20.898;2022-11-25T09:39:01;24.92;;;11.60;;
36653;SDS011;22650;49.350;20.898;2022-11-25T09:41:41;27.83;;;12.85;;
36653;SDS011;22650;49.350;20.898;2022-11-25T09:44:49;20.02;;;9.65;;
36653;SDS011;22650;49.350;20.898;2022-11-25T09:47:52;19.45;;;8.13;;
36653;SDS011;22650;49.350;20.898;2022-11-25T09:50:34;16.00;;;7.97;;
36653;SDS011;22650;49.350;20.898;2022-11-25T09:53:21;17.02;;;9.18;;
36653;SDS011;22650;49.350;20.898;2022-11-25T09:56:07;13.18;;;6.95;;
36653;SDS011;22650;49.350;20.898;2022-11-25T09:58:51;11.57;;;6.78;;
36653;SDS011;22650;49.350;20.898;2022-11-25T10:01:31;13.43;;;6.15;;
36653;SDS011;22650;49.350;20.898;2022-11-25T10:04:16;12.23;;;6.63;;
36653;SDS011;22650;49.350;20.898;2022-11-25T10:06:56;12.18;;;6.18;;
36653;SDS011;22650;49.350;20.898;2022-11-25T10:09:33;7.32;;;4.70;;
36653;SDS011;22650;49.350;20.898;2022-11-25T10:12:10;9.93;;;5.30;;
36653;SDS011;22650;49.350;20.898;2022-11-25T10:14:52;7.88;;;4.75;;
36653;SDS011;22650;49.350;20.898;2022-11-25T10:17:32;7.82;;;4.15;;
36653;SDS011;22650;49.350;20.898;2022-11-25T10:20:12;10.13;;;4.20;;
36653;SDS011;22650;49.350;20.898;2022-11-25T10:22:50;9.68;;;4.82;;
36653;SDS011;22650;49.350;20.898;2022-11-25T10:25:27;11.77;;;4.88;;
36653;SDS011;22650;49.350;20.898;2022-11-25T10:28:03;13.07;;;4.78;;
36653;SDS011;22650;49.350;20.898;2022-11-25T10:30:44;10.68;;;5.00;;
36653;SDS011;22650;49.350;20.898;2022-11-25T10:33:22;8.70;;;4.55;;
36653;SDS011;22650;49.350;20.898;2022-11-25T10:35:59;7.75;;;3.85;;
36653;SDS011;22650;49.350;20.898;2022-11-25T10:38:39;8.63;;;3.85;;
36653;SDS011;22650;49.350;20.898;2022-11-25T10:41:15;9.50;;;4.45;;
36653;SDS011;22650;49.350;20.898;2022-11-25T10:43:51;12.00;;;5.15;;
36653;SDS011;22650;49.350;20.898;2022-11-25T10:46:28;8.15;;;4.25;;
36653;SDS011;22650;49.350;20.898;2022-11-25T10:49:34;7.78;;;4.22;;
36653;SDS011;22650;49.350;20.898;2022-11-25T10:52:11;12.50;;;5.47;;
36653;SDS011;22650;49.350;20.898;2022-11-25T10:54:53;10.43;;;5.05;;
36653;SDS011;22650;49.350;20.898;2022-11-25T10:57:28;9.07;;;4.88;;
36653;SDS011;22650;49.350;20.898;2022-11-25T11:00:02;9.50;;;4.82;;
36653;SDS011;22650;49.350;20.898;2022-11-25T11:02:44;12.55;;;4.13;;
36653;SDS011;22650;49.350;20.898;2022-11-25T11:05:21;8.48;;;3.72;;
36653;SDS011;22650;49.350;20.898;2022-11-25T11:08:07;10.38;;;4.57;;
36653;SDS011;22650;49.350;20.898;2022-11-25T11:10:47;9.82;;;4.90;;
36653;SDS011;22650;49.350;20.898;2022-11-25T11:13:41;9.65;;;4.35;;
36653;SDS011;22650;49.350;20.898;2022-11-25T11:16:23;8.73;;;4.47;;
36653;SDS011;22650;49.350;20.898;2022-11-25T11:19:03;10.00;;;4.82;;
36653;SDS011;22650;49.350;20.898;2022-11-25T11:21:37;10.32;;;5.35;;
36653;SDS011;22650;49.350;20.898;2022-11-25T11:24:22;10.52;;;4.75;;
36653;SDS011;22650;49.350;20.898;2022-11-25T11:27:01;9.90;;;5.43;;
36653;SDS011;22650;49.350;20.898;2022-11-25T11:29:37;16.27;;;6.90;;
36653;SDS011;22650;49.350;20.898;2022-11-25T11:32:18;11.80;;;5.00;;
36653;SDS011;22650;49.350;20.898;2022-11-25T11:34:58;17.13;;;5.10;;
36653;SDS011;22650;49.350;20.898;2022-11-25T11:40:18;11.80;;;4.97;;
36653;SDS011;22650;49.350;20.898;2022-11-25T11:42:59;9.30;;;4.88;;
36653;SDS011;22650;49.350;20.898;2022-11-25T11:45:54;9.38;;;5.15;;
36653;SDS011;22650;49.350;20.898;2022-11-25T11:48:39;11.85;;;5.35;;
36653;SDS011;22650;49.350;20.898;2022-11-25T11:51:24;13.77;;;5.63;;
36653;SDS011;22650;49.350;20.898;2022-11-25T11:54:05;9.85;;;5.55;;
36653;SDS011;22650;49.350;20.898;2022-11-25T11:56:46;11.13;;;6.28;;
36653;SDS011;22650;49.350;20.898;2022-11-25T11:59:41;8.48;;;4.85;;
36653;SDS011;22650;49.350;20.898;2022-11-25T12:02:23;11.75;;;4.97;;
36653;SDS011;22650;49.350;20.898;2022-11-25T12:05:05;9.32;;;4.90;;
36653;SDS011;22650;49.350;20.898;2022-11-25T12:10:39;13.80;;;5.55;;
36653;SDS011;22650;49.350;20.898;2022-11-25T12:13:17;12.40;;;5.30;;
36653;SDS011;22650;49.350;20.898;2022-11-25T12:15:59;11.25;;;5.53;;
36653;SDS011;22650;49.350;20.898;2022-11-25T12:18:40;11.63;;;5.80;;
36653;SDS011;22650;49.350;20.898;2022-11-25T12:21:24;10.77;;;5.05;;
36653;SDS011;22650;49.350;20.898;2022-11-25T12:24:15;9.38;;;5.35;;
36653;SDS011;22650;49.350;20.898;2022-11-25T12:26:56;10.05;;;4.75;;
36653;SDS011;22650;49.350;20.898;2022-11-25T12:29:34;7.40;;;4.03;;
36653;SDS011;22650;49.350;20.898;2022-11-25T12:32:20;10.68;;;5.22;;
36653;SDS011;22650;49.350;20.898;2022-11-25T12:35:15;13.75;;;6.22;;
36653;SDS011;22650;49.350;20.898;2022-11-25T12:37:56;10.57;;;6.03;;
36653;SDS011;22650;49.350;20.898;2022-11-25T12:40:39;14.30;;;5.60;;
36653;SDS011;22650;49.350;20.898;2022-11-25T12:43:21;9.05;;;4.53;;
36653;SDS011;22650;49.350;20.898;2022-11-25T12:46:02;9.68;;;4.85;;
36653;SDS011;22650;49.350;20.898;2022-11-25T12:48:42;10.43;;;5.60;;
36653;SDS011;22650;49.350;20.898;2022-11-25T12:51:19;14.68;;;7.30;;
36653;SDS011;22650;49.350;20.898;2022-11-25T12:54:07;14.60;;;7.18;;
36653;SDS011;22650;49.350;20.898;2022-11-25T12:57:07;14.57;;;7.35;;
36653;SDS011;22650;49.350;20.898;2022-11-25T13:00:02;12.88;;;6.18;;
36653;SDS011;22650;49.350;20.898;2022-11-25T13:06:27;11.93;;;5.30;;
36653;SDS011;22650;49.350;20.898;2022-11-25T13:09:16;14.60;;;5.00;;
36653;SDS011;22650;49.350;20.898;2022-11-25T13:12:18;12.23;;;5.45;;
36653;SDS011;22650;49.350;20.898;2022-11-25T13:15:21;15.25;;;6.28;;
36653;SDS011;22650;49.350;20.898;2022-11-25T13:17:59;12.27;;;6.20;;
36653;SDS011;22650;49.350;20.898;2022-11-25T13:20:46;14.05;;;6.32;;
36653;SDS011;22650;49.350;20.898;2022-11-25T13:23:22;17.38;;;7.10;;
36653;SDS011;22650;49.350;20.898;2022-11-25T13:32:35;12.65;;;6.78;;
36653;SDS011;22650;49.350;20.898;2022-11-25T13:41:45;35.60;;;16.77;;
36653;SDS011;22650;49.350;20.898;2022-11-25T13:44:21;34.38;;;15.68;;
36653;SDS011;22650;49.350;20.898;2022-11-25T13:47:21;34.53;;;15.02;;
36653;SDS011;22650;49.350;20.898;2022-11-25T13:50:05;29.27;;;14.50;;
36653;SDS011;22650;49.350;20.898;2022-11-25T13:52:56;22.15;;;10.30;;
36653;SDS011;22650;49.350;20.898;2022-11-25T13:55:32;21.20;;;11.13;;
36653;SDS011;22650;49.350;20.898;2022-11-25T13:58:21;21.50;;;12.15;;
36653;SDS011;22650;49.350;20.898;2022-11-25T14:01:00;37.35;;;16.33;;
36653;SDS011;22650;49.350;20.898;2022-11-25T14:03:58;31.77;;;16.33;;
36653;SDS011;22650;49.350;20.898;2022-11-25T14:06:49;36.05;;;17.15;;
36653;SDS011;22650;49.350;20.898;2022-11-25T14:12:44;32.17;;;15.77;;
36653;SDS011;22650;49.350;20.898;2022-11-25T14:18:57;37.83;;;15.73;;
36653;SDS011;22650;49.350;20.898;2022-11-25T14:22:21;30.25;;;15.90;;
36653;SDS011;22650;49.350;20.898;2022-11-25T14:25:13;28.60;;;13.57;;
36653;SDS011;22650;49.350;20.898;2022-11-25T14:28:03;18.75;;;9.27;;
36653;SDS011;22650;49.350;20.898;2022-11-25T14:30:42;32.70;;;14.50;;
36653;SDS011;22650;49.350;20.898;2022-11-25T14:33:24;26.35;;;12.23;;
36653;SDS011;22650;49.350;20.898;2022-11-25T14:36:04;36.72;;;15.73;;
36653;SDS011;22650;49.350;20.898;2022-11-25T14:38:44;32.05;;;15.50;;
36653;SDS011;22650;49.350;20.898;2022-11-25T14:41:21;35.97;;;16.45;;
36653;SDS011;22650;49.350;20.898;2022-11-25T14:43:59;37.17;;;16.13;;
36653;SDS011;22650;49.350;20.898;2022-11-25T14:46:49;28.25;;;13.70;;
36653;SDS011;22650;49.350;20.898;2022-11-25T14:49:23;35.58;;;15.20;;
36653;SDS011;22650;49.350;20.898;2022-11-25T14:52:22;32.70;;;15.20;;
36653;SDS011;22650;49.350;20.898;2022-11-25T14:55:00;36.55;;;17.63;;
36653;SDS011;22650;49.350;20.898;2022-11-25T14:57:35;36.78;;;17.95;;
36653;SDS011;22650;49.350;20.898;2022-11-25T15:00:13;41.95;;;18.92;;
36653;SDS011;22650;49.350;20.898;2022-11-25T15:02:51;48.83;;;21.58;;
36653;SDS011;22650;49.350;20.898;2022-11-25T15:05:30;40.47;;;20.08;;
36653;SDS011;22650;49.350;20.898;2022-11-25T15:08:08;40.00;;;18.98;;
36653;SDS011;22650;49.350;20.898;2022-11-25T15:10:47;30.20;;;14.88;;
36653;SDS011;22650;49.350;20.898;2022-11-25T15:13:26;37.55;;;18.45;;
36653;SDS011;22650;49.350;20.898;2022-11-25T15:16:05;31.52;;;16.48;;
36653;SDS011;22650;49.350;20.898;2022-11-25T15:18:44;41.72;;;18.85;;
36653;SDS011;22650;49.350;20.898;2022-11-25T15:21:21;42.80;;;17.33;;
36653;SDS011;22650;49.350;20.898;2022-11-25T15:24:01;39.55;;;19.27;;
36653;SDS011;22650;49.350;20.898;2022-11-25T15:26:37;34.35;;;16.05;;
36653;SDS011;22650;49.350;20.898;2022-11-25T15:29:11;29.55;;;15.23;;
36653;SDS011;22650;49.350;20.898;2022-11-25T15:31:45;26.73;;;12.98;;
36653;SDS011;22650;49.350;20.898;2022-11-25T15:34:21;31.30;;;16.00;;
36653;SDS011;22650;49.350;20.898;2022-11-25T15:36:59;37.33;;;16.42;;
36653;SDS011;22650;49.350;20.898;2022-11-25T15:39:32;30.73;;;14.57;;
36653;SDS011;22650;49.350;20.898;2022-11-25T15:42:15;28.95;;;13.85;;
36653;SDS011;22650;49.350;20.898;2022-11-25T15:44:52;31.30;;;14.77;;
36653;SDS011;22650;49.350;20.898;2022-11-25T15:47:28;25.92;;;13.35;;
36653;SDS011;22650;49.350;20.898;2022-11-25T15:50:04;27.88;;;13.73;;
36653;SDS011;22650;49.350;20.898;2022-11-25T15:52:44;30.00;;;13.43;;
36653;SDS011;22650;49.350;20.898;2022-11-25T15:55:23;30.65;;;13.70;;
36653;SDS011;22650;49.350;20.898;2022-11-25T15:58:04;30.27;;;13.57;;